createdAt,value
2018-12-25T00:00:18.049Z,4.10
2018-12-25T00:02:49.159Z,4.10
2018-12-25T00:05:19.779Z,4.10
2018-12-25T00:07:50.356Z,4.10
2018-12-25T00:10:20.937Z,4.10
2018-12-25T00:12:51.574Z,4.00
2018-12-25T00:15:22.187Z,4.10
2018-12-25T00:17:52.835Z,4.10
2018-12-25T00:20:23.407Z,4.10
2018-12-25T00:22:54.109Z,4.10
2018-12-25T00:25:24.714Z,4.10
2018-12-25T00:27:55.290Z,4.00
2018-12-25T00:30:25.981Z,4.10
2018-12-25T00:32:56.532Z,4.10
2018-12-25T00:35:27.193Z,4.00
2018-12-25T00:37:57.835Z,4.10
2018-12-25T00:40:28.393Z,4.00
2018-12-25T00:42:58.986Z,4.10
2018-12-25T00:45:29.607Z,4.10
2018-12-25T00:48:01.527Z,4.10
2018-12-25T00:50:32.638Z,4.10
2018-12-25T00:53:03.309Z,4.10
2018-12-25T00:55:33.914Z,4.10
2018-12-25T00:58:04.491Z,4.10
2018-12-25T01:00:35.110Z,4.10
2018-12-25T01:03:05.793Z,4.00
2018-12-25T01:05:36.413Z,4.10
2018-12-25T01:08:07.012Z,4.10
2018-12-25T01:10:37.689Z,4.10
2018-12-25T01:13:08.266Z,4.10
2018-12-25T01:15:38.858Z,4.10
2018-12-25T01:18:09.474Z,4.10
2018-12-25T01:20:40.090Z,4.10
2018-12-25T01:23:10.730Z,4.10
2018-12-25T01:25:41.281Z,4.10
2018-12-25T01:28:12.018Z,4.10
2018-12-25T01:30:42.570Z,4.20
2018-12-25T01:33:13.192Z,4.20
2018-12-25T01:35:43.772Z,4.20
2018-12-25T01:38:14.375Z,4.20
2018-12-25T01:40:45.012Z,4.20
2018-12-25T01:43:16.303Z,4.20
2018-12-25T01:45:46.910Z,4.20
2018-12-25T01:48:18.110Z,4.20
2018-12-25T01:50:48.734Z,4.20
2018-12-25T01:53:19.928Z,4.20
2018-12-25T01:55:50.734Z,4.20
2018-12-25T01:58:21.710Z,4.20
2018-12-25T02:00:54.046Z,4.20
2018-12-25T02:03:24.757Z,4.20
2018-12-25T02:05:56.048Z,4.20
2018-12-25T02:08:27.188Z,4.20
2018-12-25T02:10:58.334Z,4.30
2018-12-25T02:13:29.475Z,4.20
2018-12-25T02:16:00.406Z,4.30
2018-12-25T02:18:31.560Z,4.30
2018-12-25T02:21:02.904Z,4.20
2018-12-25T02:23:33.780Z,4.30
2018-12-25T02:26:04.831Z,4.30
2018-12-25T02:28:46.910Z,4.30
2018-12-25T02:31:18.432Z,4.30
2018-12-25T02:33:49.396Z,4.30
2018-12-25T02:36:20.210Z,4.30
2018-12-25T02:38:50.960Z,4.30
2018-12-25T02:41:21.792Z,4.30
2018-12-25T02:43:52.584Z,4.30
2018-12-25T02:46:23.759Z,4.30
2018-12-25T02:48:54.906Z,4.30
2018-12-25T02:51:25.696Z,4.30
2018-12-25T02:53:56.646Z,4.30
2018-12-25T02:56:27.641Z,4.30
2018-12-25T02:58:58.517Z,4.30
2018-12-25T03:01:29.567Z,4.30
2018-12-25T03:04:00.365Z,4.30
2018-12-25T03:06:32.205Z,4.40
2018-12-25T03:09:04.316Z,4.30
2018-12-25T03:11:35.279Z,4.30
2018-12-25T03:14:06.270Z,4.30
2018-12-25T03:16:37.261Z,4.30
2018-12-25T03:19:08.158Z,4.30
2018-12-25T03:21:38.922Z,4.30
2018-12-25T03:24:09.535Z,4.30
2018-12-25T03:26:40.098Z,4.30
2018-12-25T03:29:10.700Z,4.30
2018-12-25T03:31:41.289Z,4.30
2018-12-25T03:34:11.886Z,4.30
2018-12-25T03:36:42.459Z,4.30
2018-12-25T03:39:13.061Z,4.30
2018-12-25T03:41:43.644Z,4.30
2018-12-25T03:44:14.238Z,4.30
2018-12-25T03:46:44.850Z,4.30
2018-12-25T03:49:15.475Z,4.30
2018-12-25T03:51:46.040Z,4.30
2018-12-25T03:54:16.676Z,4.30
2018-12-25T03:56:47.288Z,4.30
2018-12-25T03:59:17.858Z,4.30
2018-12-25T04:01:48.497Z,4.30
2018-12-25T04:04:19.059Z,4.30
2018-12-25T04:06:49.748Z,4.40
2018-12-25T04:09:20.333Z,4.40
2018-12-25T04:11:50.882Z,4.40
2018-12-25T04:14:21.480Z,4.40
2018-12-25T04:16:52.167Z,4.30
2018-12-25T04:19:22.673Z,4.40
2018-12-25T04:21:53.234Z,4.40
2018-12-25T04:24:24.054Z,4.40
2018-12-25T04:26:55.152Z,4.30
2018-12-25T04:29:25.954Z,4.40
2018-12-25T04:31:57.410Z,4.40
2018-12-25T04:34:28.158Z,4.40
2018-12-25T04:36:58.970Z,4.40
2018-12-25T04:39:31.610Z,4.40
2018-12-25T04:42:02.188Z,4.40
2018-12-25T04:44:32.846Z,4.40
2018-12-25T04:47:03.431Z,4.40
2018-12-25T04:49:34.008Z,4.40
2018-12-25T04:52:04.621Z,4.40
2018-12-25T04:54:35.298Z,4.40
2018-12-25T04:57:05.823Z,4.40
2018-12-25T04:59:36.434Z,4.40
2018-12-25T05:02:07.023Z,4.40
2018-12-25T05:04:37.632Z,4.40
2018-12-25T05:07:08.171Z,4.40
2018-12-25T05:09:38.733Z,4.30
2018-12-25T05:12:09.296Z,4.30
2018-12-25T05:14:39.901Z,4.40
2018-12-25T05:17:10.400Z,4.40
2018-12-25T05:19:41.011Z,4.30
2018-12-25T05:22:11.572Z,4.30
2018-12-25T05:24:42.284Z,4.40
2018-12-25T05:27:12.858Z,4.40
2018-12-25T05:29:43.446Z,4.40
2018-12-25T05:32:14.047Z,4.40
2018-12-25T05:34:44.611Z,4.40
2018-12-25T05:37:15.188Z,4.40
2018-12-25T05:39:49.172Z,4.30
2018-12-25T05:42:19.985Z,4.40
2018-12-25T05:44:51.088Z,4.40
2018-12-25T05:47:22.176Z,4.40
2018-12-25T05:49:53.063Z,4.40
2018-12-25T05:52:23.935Z,4.30
2018-12-25T05:54:54.647Z,4.30
2018-12-25T05:57:25.512Z,4.30
2018-12-25T05:59:56.431Z,4.30
2018-12-25T06:02:27.626Z,4.30
2018-12-25T06:04:58.857Z,4.30
2018-12-25T06:07:30.017Z,4.30
2018-12-25T06:10:01.042Z,4.30
2018-12-25T06:12:31.842Z,4.30
2018-12-25T06:15:02.707Z,4.30
2018-12-25T06:17:33.977Z,4.30
2018-12-25T06:20:05.491Z,4.30
2018-12-25T06:22:36.593Z,4.30
2018-12-25T06:25:08.022Z,4.30
2018-12-25T06:27:38.783Z,4.30
2018-12-25T06:30:09.573Z,4.30
2018-12-25T06:32:40.291Z,4.30
2018-12-25T06:35:10.905Z,4.30
2018-12-25T06:37:41.733Z,4.30
2018-12-25T06:40:12.683Z,4.30
2018-12-25T06:42:43.975Z,4.30
2018-12-25T06:45:14.758Z,4.30
2018-12-25T06:47:45.417Z,4.30
2018-12-25T06:50:16.565Z,4.30
2018-12-25T06:52:47.219Z,4.40
2018-12-25T06:55:18.077Z,4.30
2018-12-25T06:57:48.784Z,4.30
2018-12-25T07:00:19.590Z,4.30
2018-12-25T07:02:50.867Z,4.30
2018-12-25T07:05:21.701Z,4.30
2018-12-25T07:07:53.057Z,4.30
2018-12-25T07:10:24.275Z,4.30
2018-12-25T07:12:55.193Z,4.30
2018-12-25T07:15:33.144Z,4.30
2018-12-25T07:17:58.473Z,4.30
2018-12-25T07:20:30.003Z,4.40
2018-12-25T07:23:02.377Z,4.30
2018-12-25T07:25:33.275Z,4.30
2018-12-25T07:28:04.182Z,4.30
2018-12-25T07:30:35.243Z,4.30
2018-12-25T07:33:06.061Z,4.30
2018-12-25T07:35:37.359Z,4.30
2018-12-25T07:38:08.272Z,4.30
2018-12-25T07:40:38.874Z,4.30
2018-12-25T07:43:09.635Z,4.30
2018-12-25T07:45:40.185Z,4.30
2018-12-25T07:48:11.357Z,4.30
2018-12-25T07:50:41.911Z,4.30
2018-12-25T07:53:12.527Z,4.30
2018-12-25T07:55:43.163Z,4.30
2018-12-25T07:58:13.783Z,4.30
2018-12-25T08:00:44.349Z,4.30
2018-12-25T08:03:14.963Z,4.30
2018-12-25T08:05:45.520Z,4.30
2018-12-25T08:08:16.229Z,4.40
2018-12-25T08:10:46.863Z,4.30
2018-12-25T08:13:17.558Z,4.40
2018-12-25T08:15:48.158Z,4.40
2018-12-25T08:18:19.023Z,4.40
2018-12-25T08:20:50.349Z,4.40
2018-12-25T08:23:21.483Z,4.40
2018-12-25T08:25:52.650Z,4.40
2018-12-25T08:28:23.625Z,4.40
2018-12-25T08:30:54.663Z,4.40
2018-12-25T08:33:25.885Z,4.40
2018-12-25T08:35:57.018Z,4.50
2018-12-25T08:38:28.367Z,4.50
2018-12-25T08:40:59.395Z,4.50
2018-12-25T08:43:30.660Z,4.60
2018-12-25T08:46:01.424Z,4.70
2018-12-25T08:48:32.290Z,4.80
2018-12-25T08:51:03.129Z,4.70
2018-12-25T08:53:33.970Z,4.70
2018-12-25T08:56:07.360Z,4.60
2018-12-25T08:58:37.960Z,4.60
2018-12-25T09:01:08.549Z,4.70
2018-12-25T09:03:39.252Z,4.70
2018-12-25T09:06:10.336Z,4.70
2018-12-25T09:08:41.173Z,4.60
2018-12-25T09:11:11.991Z,4.60
2018-12-25T09:13:45.365Z,4.60
2018-12-25T09:16:16.314Z,4.60
2018-12-25T09:18:47.209Z,4.60
2018-12-25T09:21:17.984Z,4.80
2018-12-25T09:23:56.768Z,5.00
2018-12-25T09:26:31.760Z,4.90
2018-12-25T09:29:06.218Z,4.80
2018-12-25T09:31:37.262Z,4.80
2018-12-25T09:34:08.143Z,4.80
2018-12-25T09:36:38.965Z,4.80
2018-12-25T09:39:09.645Z,4.80
2018-12-25T09:41:40.308Z,4.80
2018-12-25T09:44:10.994Z,4.80
2018-12-25T09:46:41.617Z,4.70
2018-12-25T09:49:12.201Z,4.70
2018-12-25T09:51:43.038Z,4.80
2018-12-25T09:54:13.599Z,4.70
2018-12-25T09:56:44.730Z,4.80
2018-12-25T09:59:15.643Z,4.80
2018-12-25T10:01:46.468Z,4.80
2018-12-25T10:04:17.347Z,4.80
2018-12-25T10:06:48.323Z,4.80
2018-12-25T10:09:19.701Z,4.80
2018-12-25T10:11:50.335Z,4.80
2018-12-25T10:14:20.908Z,4.80
2018-12-25T10:16:51.454Z,4.80
2018-12-25T10:19:22.107Z,4.80
2018-12-25T10:21:52.672Z,4.80
2018-12-25T10:24:23.296Z,4.90
2018-12-25T10:26:53.859Z,4.90
2018-12-25T10:29:24.461Z,4.90
2018-12-25T10:31:55.096Z,4.90
2018-12-25T10:34:26.089Z,4.90
2018-12-25T10:36:56.873Z,4.90
2018-12-25T10:39:27.675Z,4.90
2018-12-25T10:41:58.741Z,4.90
2018-12-25T10:44:29.761Z,4.90
2018-12-25T10:47:00.971Z,4.90
2018-12-25T10:49:31.834Z,4.90
2018-12-25T10:52:02.680Z,4.90
2018-12-25T10:54:33.966Z,4.90
2018-12-25T10:57:05.135Z,5.00
2018-12-25T10:59:36.008Z,5.00
2018-12-25T11:02:07.013Z,5.00
2018-12-25T11:04:38.253Z,5.00
2018-12-25T11:07:09.983Z,5.00
2018-12-25T11:09:40.657Z,5.00
2018-12-25T11:12:11.276Z,5.00
2018-12-25T11:14:42.758Z,5.00
2018-12-25T11:17:13.853Z,5.00
2018-12-25T11:19:45.223Z,5.10
2018-12-25T11:22:19.781Z,5.10
2018-12-25T11:24:48.618Z,5.10
2018-12-25T11:27:19.875Z,5.10
2018-12-25T11:29:50.526Z,5.10
2018-12-25T11:32:21.421Z,5.10
2018-12-25T11:34:52.304Z,5.10
2018-12-25T11:37:23.104Z,5.10
2018-12-25T11:39:53.986Z,5.10
2018-12-25T11:42:25.700Z,5.10
2018-12-25T11:44:56.849Z,5.10
2018-12-25T11:47:27.519Z,5.10
2018-12-25T11:50:00.694Z,5.10
2018-12-25T11:52:31.943Z,5.10
2018-12-25T11:55:02.714Z,5.20
2018-12-25T11:57:34.390Z,5.10
2018-12-25T12:00:06.166Z,5.10
2018-12-25T12:02:36.925Z,5.20
2018-12-25T12:05:07.782Z,5.20
2018-12-25T12:07:38.758Z,5.20
2018-12-25T12:10:10.334Z,5.20
2018-12-25T12:12:41.038Z,5.20
2018-12-25T12:15:11.940Z,5.20
2018-12-25T12:17:42.529Z,5.20
2018-12-25T12:20:13.302Z,5.20
2018-12-25T12:22:44.083Z,5.20
2018-12-25T12:25:15.470Z,5.20
2018-12-25T12:27:46.374Z,5.30
2018-12-25T12:30:17.362Z,5.20
2018-12-25T12:32:48.203Z,5.20
2018-12-25T12:35:18.982Z,5.20
2018-12-25T12:37:50.622Z,5.20
2018-12-25T12:40:21.201Z,5.30
2018-12-25T12:42:51.758Z,5.30
2018-12-25T12:45:22.393Z,5.30
2018-12-25T12:47:52.930Z,5.30
2018-12-25T12:50:23.543Z,5.30
2018-12-25T12:52:54.327Z,5.30
2018-12-25T12:55:24.927Z,5.30
2018-12-25T12:57:55.502Z,5.30
2018-12-25T13:00:26.403Z,5.30
2018-12-25T13:02:57.267Z,5.30
2018-12-25T13:05:28.183Z,5.30
2018-12-25T13:07:59.279Z,5.30
2018-12-25T13:10:29.886Z,5.30
2018-12-25T13:13:00.515Z,5.30
2018-12-25T13:15:31.252Z,5.40
2018-12-25T13:18:01.962Z,5.40
2018-12-25T13:20:32.743Z,5.40
2018-12-25T13:23:04.032Z,5.40
2018-12-25T13:25:34.756Z,5.30
2018-12-25T13:28:05.517Z,5.30
2018-12-25T13:30:36.116Z,5.40
2018-12-25T13:33:06.773Z,5.30
2018-12-25T13:35:37.654Z,5.30
2018-12-25T13:38:08.248Z,5.30
2018-12-25T13:40:38.953Z,5.30
2018-12-25T13:43:09.471Z,5.30
2018-12-25T13:45:40.087Z,5.30
2018-12-25T13:48:10.666Z,5.30
2018-12-25T13:50:41.255Z,5.30
2018-12-25T13:53:16.673Z,5.30
2018-12-25T13:55:55.812Z,5.30
2018-12-25T13:58:27.461Z,5.30
2018-12-25T14:00:58.279Z,5.30
2018-12-25T14:03:30.235Z,5.30
2018-12-25T14:06:01.161Z,5.30
2018-12-25T14:08:32.241Z,5.30
2018-12-25T14:11:03.007Z,5.30
2018-12-25T14:13:34.509Z,5.30
2018-12-25T14:16:05.387Z,5.30
2018-12-25T14:18:36.169Z,5.30
2018-12-25T14:21:06.944Z,5.30
2018-12-25T14:23:38.338Z,5.30
2018-12-25T14:26:09.921Z,5.30
2018-12-25T14:28:41.229Z,5.30
2018-12-25T14:31:12.200Z,5.30
2018-12-25T14:33:43.399Z,5.30
2018-12-25T14:36:14.490Z,5.30
2018-12-25T14:38:45.823Z,5.30
2018-12-25T14:41:17.083Z,5.30
2018-12-25T14:43:48.227Z,5.30
2018-12-25T14:46:19.159Z,5.30
2018-12-25T14:48:50.403Z,5.30
2018-12-25T14:51:21.317Z,5.30
2018-12-25T14:53:52.587Z,5.20
2018-12-25T14:56:23.721Z,5.20
2018-12-25T14:58:54.727Z,5.20
2018-12-25T15:01:25.489Z,5.20
2018-12-25T15:03:56.528Z,5.20
2018-12-25T15:06:27.691Z,5.20
2018-12-25T15:08:58.450Z,5.20
2018-12-25T15:11:29.553Z,5.20
2018-12-25T15:14:00.351Z,5.20
2018-12-25T15:16:31.176Z,5.20
2018-12-25T15:19:02.154Z,5.10
2018-12-25T15:21:32.942Z,5.10
2018-12-25T15:24:03.725Z,5.10
2018-12-25T15:26:34.995Z,5.10
2018-12-25T15:29:06.139Z,5.10
2018-12-25T15:31:36.921Z,5.10
2018-12-25T15:34:07.924Z,5.10
2018-12-25T15:36:40.795Z,5.10
2018-12-25T15:39:13.032Z,5.10
2018-12-25T15:41:44.054Z,5.10
2018-12-25T15:44:15.144Z,5.10
2018-12-25T15:46:46.090Z,5.00
2018-12-25T15:49:17.017Z,5.10
2018-12-25T15:51:47.890Z,5.00
2018-12-25T15:54:18.792Z,5.00
2018-12-25T15:56:49.566Z,5.00
2018-12-25T15:59:20.349Z,5.00
2018-12-25T16:01:51.824Z,4.90
2018-12-25T16:04:23.068Z,4.90
2018-12-25T16:06:54.330Z,4.90
2018-12-25T16:09:25.349Z,4.90
2018-12-25T16:11:56.262Z,4.90
2018-12-25T16:14:27.200Z,4.90
2018-12-25T16:16:58.157Z,4.90
2018-12-25T16:19:29.147Z,4.90
2018-12-25T16:21:59.938Z,4.90
2018-12-25T16:24:30.614Z,4.90
2018-12-25T16:27:01.708Z,4.90
2018-12-25T16:29:32.584Z,4.90
2018-12-25T16:32:03.435Z,4.90
2018-12-25T16:34:34.219Z,4.80
2018-12-25T16:37:05.071Z,4.80
2018-12-25T16:39:36.101Z,4.80
2018-12-25T16:42:07.238Z,4.80
2018-12-25T16:44:38.170Z,4.80
2018-12-25T16:47:09.323Z,4.80
2018-12-25T16:49:40.669Z,4.80
2018-12-25T16:52:11.438Z,4.80
2018-12-25T16:54:42.168Z,4.80
2018-12-25T16:57:15.328Z,4.80
2018-12-25T16:59:46.399Z,4.80
2018-12-25T17:02:17.613Z,4.80
2018-12-25T17:04:48.390Z,4.80
2018-12-25T17:07:19.376Z,4.80
2018-12-25T17:09:50.369Z,4.80
2018-12-25T17:12:21.262Z,4.80
2018-12-25T17:14:52.259Z,4.80
2018-12-25T17:17:23.131Z,4.80
2018-12-25T17:19:54.107Z,4.80
2018-12-25T17:22:24.974Z,4.80
2018-12-25T17:24:55.533Z,4.70
2018-12-25T17:27:26.139Z,4.80
2018-12-25T17:29:56.811Z,4.80
2018-12-25T17:32:27.419Z,4.80
2018-12-25T17:34:58.112Z,4.70
2018-12-25T17:37:29.578Z,4.70
2018-12-25T17:40:00.510Z,4.80
2018-12-25T17:42:31.508Z,4.80
2018-12-25T17:45:02.180Z,4.80
2018-12-25T17:47:32.794Z,4.80
2018-12-25T17:50:03.379Z,4.80
2018-12-25T17:52:33.933Z,4.80
2018-12-25T17:55:04.556Z,4.80
2018-12-25T17:57:35.122Z,4.80
2018-12-25T18:00:06.419Z,4.80
2018-12-25T18:02:36.991Z,4.80
2018-12-25T18:05:11.744Z,4.80
2018-12-25T18:07:39.705Z,4.80
2018-12-25T18:10:10.346Z,4.80
2018-12-25T18:12:40.907Z,4.80
2018-12-25T18:15:11.608Z,4.90
2018-12-25T18:17:42.198Z,4.80
2018-12-25T18:20:13.019Z,4.90
2018-12-25T18:22:43.683Z,4.90
2018-12-25T18:25:14.321Z,4.90
2018-12-25T18:27:44.890Z,4.90
2018-12-25T18:30:15.600Z,4.90
2018-12-25T18:32:46.465Z,4.90
2018-12-25T18:35:17.278Z,4.90
2018-12-25T18:37:48.046Z,4.90
2018-12-25T18:40:18.919Z,4.90
2018-12-25T18:42:50.236Z,4.90
2018-12-25T18:45:21.694Z,4.90
2018-12-25T18:47:52.939Z,4.90
2018-12-25T18:50:24.070Z,4.90
2018-12-25T18:52:54.988Z,4.90
2018-12-25T18:55:25.887Z,4.90
2018-12-25T18:57:56.866Z,4.90
2018-12-25T19:00:27.658Z,4.90
2018-12-25T19:02:58.561Z,4.90
2018-12-25T19:05:29.344Z,4.90
2018-12-25T19:08:00.135Z,4.90
2018-12-25T19:10:31.374Z,4.90
2018-12-25T19:13:02.258Z,4.90
2018-12-25T19:15:33.846Z,4.90
2018-12-25T19:18:04.664Z,4.90
2018-12-25T19:20:35.720Z,4.90
2018-12-25T19:23:06.515Z,5.00
2018-12-25T19:25:37.929Z,4.90
2018-12-25T19:28:08.800Z,4.90
2018-12-25T19:30:40.158Z,4.90
2018-12-25T19:33:11.262Z,4.90
2018-12-25T19:35:42.398Z,4.90
2018-12-25T19:38:13.536Z,4.90
2018-12-25T19:40:44.558Z,5.00
2018-12-25T19:43:15.619Z,5.00
2018-12-25T19:45:50.225Z,4.90
2018-12-25T19:48:21.520Z,5.00
2018-12-25T19:50:52.745Z,5.00
2018-12-25T19:53:23.541Z,5.00
2018-12-25T19:55:55.095Z,5.00
2018-12-25T19:58:26.253Z,5.00
2018-12-25T20:00:57.623Z,5.00
2018-12-25T20:03:28.777Z,5.00
2018-12-25T20:06:05.634Z,5.00
2018-12-25T20:09:05.275Z,5.00
2018-12-25T20:11:45.012Z,5.00
2018-12-25T20:14:34.954Z,5.00
2018-12-25T20:17:26.909Z,5.00
2018-12-25T20:20:00.700Z,5.00
2018-12-25T20:22:49.496Z,5.00
2018-12-25T20:25:47.304Z,5.00
2018-12-25T20:28:39.259Z,5.00
2018-12-25T20:31:31.400Z,5.00
2018-12-25T20:34:23.759Z,5.00
2018-12-25T20:37:06.451Z,5.00
2018-12-25T20:40:00.249Z,5.00
2018-12-25T20:43:08.969Z,5.00
2018-12-25T20:45:54.673Z,5.00
2018-12-25T20:48:45.033Z,5.00
2018-12-25T20:51:21.610Z,5.00
2018-12-25T20:54:16.332Z,5.10
2018-12-25T20:57:06.898Z,5.00
2018-12-25T20:59:43.482Z,5.10
2018-12-25T21:02:35.236Z,5.10
2018-12-25T21:05:42.322Z,5.10
2018-12-25T21:08:48.047Z,5.10
2018-12-25T21:11:21.780Z,5.10
2018-12-25T21:14:30.498Z,5.10
2018-12-25T21:17:39.290Z,5.10
2018-12-25T21:20:41.990Z,5.10
2018-12-25T21:23:49.033Z,5.10
2018-12-25T21:26:56.265Z,5.00
2018-12-25T21:29:27.596Z,5.00
2018-12-25T21:31:58.948Z,5.10
2018-12-25T21:34:29.781Z,5.10
2018-12-25T21:37:01.097Z,5.10
2018-12-25T21:39:32.052Z,5.10
2018-12-25T21:42:02.940Z,5.10
2018-12-25T21:44:34.162Z,5.10
2018-12-25T21:47:05.035Z,5.10
2018-12-25T21:49:39.123Z,5.10
2018-12-25T21:52:09.998Z,5.10
2018-12-25T21:54:41.945Z,5.10
2018-12-25T21:57:12.904Z,5.10
2018-12-25T21:59:44.975Z,5.10
2018-12-25T22:02:15.994Z,5.10
2018-12-25T22:04:47.240Z,5.10
2018-12-25T22:07:18.143Z,5.10
2018-12-25T22:09:49.497Z,5.10
2018-12-25T22:12:20.427Z,5.10
2018-12-25T22:14:51.674Z,5.10
2018-12-25T22:17:22.493Z,5.10
2018-12-25T22:19:53.406Z,5.10
2018-12-25T22:22:24.372Z,5.10
2018-12-25T22:24:55.058Z,5.10
2018-12-25T22:27:25.704Z,5.10
2018-12-25T22:29:57.490Z,5.10
2018-12-25T22:32:28.842Z,5.10
2018-12-25T22:35:00.861Z,5.10
2018-12-25T22:37:32.354Z,5.10
2018-12-25T22:40:03.644Z,5.10
2018-12-25T22:42:34.526Z,5.10
2018-12-25T22:45:07.036Z,5.10
2018-12-25T22:47:37.829Z,5.10
2018-12-25T22:50:08.787Z,5.10
2018-12-25T22:52:39.790Z,5.10
2018-12-25T22:55:10.672Z,5.10
2018-12-25T22:57:41.916Z,5.10
2018-12-25T23:00:13.213Z,5.10
2018-12-25T23:02:44.099Z,5.10
2018-12-25T23:05:14.964Z,5.20
2018-12-25T23:07:45.707Z,5.20
2018-12-25T23:10:17.082Z,5.20
2018-12-25T23:12:47.674Z,5.20
2018-12-25T23:15:18.297Z,5.20
2018-12-25T23:17:48.901Z,5.20
2018-12-25T23:20:28.606Z,5.10
2018-12-25T23:22:53.693Z,5.20
2018-12-25T23:25:25.302Z,5.20
2018-12-25T23:27:56.064Z,5.20
2018-12-25T23:30:26.781Z,5.20
2018-12-25T23:32:57.538Z,5.20
2018-12-25T23:35:28.751Z,5.20
2018-12-25T23:37:59.773Z,5.20
2018-12-25T23:40:30.549Z,5.20
2018-12-25T23:43:01.243Z,5.20
2018-12-25T23:45:32.609Z,5.20
2018-12-25T23:48:03.551Z,5.20
2018-12-25T23:50:34.419Z,5.20
2018-12-25T23:53:05.742Z,5.20
2018-12-25T23:55:36.981Z,5.20
2018-12-25T23:58:08.423Z,5.20
